Time;durP1;ratioP1;P1;durP2;ratioP2;P2;SDS_P1;SDS_P2;PMS_P1;PMS_P2;Temp;Humidity;BMP_temperature;BMP_pressure;BME280_temperature;BME280_humidity;BME280_pressure;Samples;Min_cycle;Max_cycle;Signal;HPM_P1;HPM_P2
2023/05/18 00:02:57;;;;;;;8.10;1.80;;;;;;;9.63;69.38;100916.92;130708;1260;107341;-77
2023/05/18 00:06:06;;;;;;;5.30;1.90;;;;;;;9.64;69.60;100923.05;130684;1260;107550;-77
2023/05/18 00:09:11;;;;;;;10.00;2.40;;;;;;;9.67;69.49;100934.51;130664;1256;107260;-78
2023/05/18 00:12:17;;;;;;;7.40;2.50;;;;;;;9.69;69.52;100932.77;130570;1261;107532;-78
2023/05/18 00:15:22;;;;;;;8.30;2.20;;;;;;;9.67;68.99;100934.86;130531;1256;107524;-78
2023/05/18 00:18:28;;;;;;;7.20;2.10;;;;;;;9.62;69.05;100938.92;130565;1261;105472;-78
2023/05/18 00:21:34;;;;;;;6.40;2.10;;;;;;;9.54;69.32;100941.87;130542;1259;107355;-78
2023/05/18 00:24:40;;;;;;;8.90;1.90;;;;;;;9.51;69.43;100938.89;130573;1258;107289;-78
2023/05/18 00:27:48;;;;;;;7.20;2.40;;;;;;;9.49;69.29;100940.66;130680;1258;107557;-77
2023/05/18 00:30:54;;;;;;;6.70;2.10;;;;;;;9.45;69.36;100933.06;130577;1260;106671;-77
2023/05/18 00:34:00;;;;;;;5.90;1.90;;;;;;;9.48;69.63;100936.88;130735;1256;107634;-77
2023/05/18 00:37:05;;;;;;;6.60;1.60;;;;;;;9.50;69.56;100938.31;130549;1259;107478;-77
2023/05/18 00:40:13;;;;;;;5.00;1.70;;;;;;;9.49;69.34;100944.02;130565;1256;107655;-77
2023/05/18 00:43:19;;;;;;;6.80;1.90;;;;;;;9.40;69.29;100954.54;130608;1261;107540;-78
2023/05/18 00:46:26;;;;;;;11.40;2.20;;;;;;;9.33;69.29;100947.38;130497;1260;106029;-78
2023/05/18 00:49:31;;;;;;;5.10;1.90;;;;;;;9.26;69.43;100941.55;130680;1260;107526;-79
2023/05/18 00:52:38;;;;;;;5.40;2.20;;;;;;;9.19;69.37;100934.69;130637;1257;107210;-78
2023/05/18 00:55:44;;;;;;;5.60;1.60;;;;;;;9.09;69.22;100933.56;130537;1260;107436;-78
2023/05/18 00:58:50;;;;;;;6.60;1.80;;;;;;;9.08;69.35;100939.88;130677;1256;107708;-78
2023/05/18 01:01:57;;;;;;;6.40;1.80;;;;;;;9.08;69.22;100944.14;130789;1257;107487;-79
2023/05/18 01:05:04;;;;;;;5.60;1.50;;;;;;;9.11;69.28;100950.05;130667;1261;106263;-79
2023/05/18 01:08:10;;;;;;;5.90;1.50;;;;;;;9.17;69.45;100954.70;130700;1256;107414;-78
2023/05/18 01:11:24;;;;;;;7.90;1.60;;;;;;;9.26;69.19;100953.46;130649;1261;107414;-78
2023/05/18 01:14:36;;;;;;;7.60;2.00;;;;;;;9.26;69.11;100953.13;130460;1260;106435;-78
2023/05/18 01:17:59;;;;;;;7.40;1.80;;;;;;;9.28;68.95;100952.52;130608;1260;107447;-79
2023/05/18 01:21:19;;;;;;;5.60;1.80;;;;;;;9.27;69.07;100955.64;130668;1260;107306;-79
2023/05/18 01:24:34;;;;;;;6.00;1.80;;;;;;;9.28;69.20;100960.94;130577;1261;107581;-79
2023/05/18 01:27:45;;;;;;;4.70;1.50;;;;;;;9.30;69.26;100961.63;130706;1256;107268;-78
2023/05/18 01:30:52;;;;;;;6.40;1.90;;;;;;;9.30;69.05;100960.70;130682;1256;106765;-78
2023/05/18 01:33:57;;;;;;;4.50;1.80;;;;;;;9.26;69.14;100962.46;130692;1261;107593;-79
2023/05/18 01:37:03;;;;;;;7.20;2.20;;;;;;;9.22;69.22;100960.30;130489;1260;179939;-79
2023/05/18 01:40:10;;;;;;;4.70;1.50;;;;;;;9.22;69.20;100963.86;130615;1260;107392;-78
2023/05/18 01:43:20;;;;;;;6.90;1.90;;;;;;;9.23;69.57;100965.73;130687;1261;107395;-79
2023/05/18 01:46:35;;;;;;;7.20;1.80;;;;;;;9.22;69.47;100965.52;130659;1258;107454;-78
2023/05/18 01:49:47;;;;;;;6.10;1.70;;;;;;;9.20;69.59;100968.98;130599;1256;105863;-78
2023/05/18 01:53:00;;;;;;;10.10;1.80;;;;;;;9.17;69.70;100970.86;130569;1256;107479;-79
2023/05/18 01:56:06;;;;;;;;;;;;;;;9.11;69.91;100970.11;130522;1261;107611;-79
2023/05/18 01:59:14;;;;;;;8.00;1.70;;;;;;;9.06;69.94;100974.29;130758;1256;107602;-79
2023/05/18 02:02:20;;;;;;;8.60;2.10;;;;;;;8.98;70.17;100974.88;130560;1262;107424;-79
2023/05/18 02:05:25;;;;;;;9.50;2.40;;;;;;;8.92;70.21;100977.70;130717;1261;107403;-78
2023/05/18 02:08:32;;;;;;;8.40;2.10;;;;;;;8.87;70.44;100977.23;130617;1271;107439;-78
2023/05/18 02:11:40;;;;;;;6.80;1.80;;;;;;;8.83;70.63;100974.66;130640;1261;107164;-79
2023/05/18 02:14:45;;;;;;;5.20;1.90;;;;;;;8.84;70.76;100974.09;130704;1256;107395;-79
2023/05/18 02:17:51;;;;;;;7.20;1.90;;;;;;;8.85;70.91;100974.90;130578;1260;106695;-79
2023/05/18 02:21:00;;;;;;;6.70;1.90;;;;;;;8.89;70.76;100972.43;130573;1256;107246;-79
2023/05/18 02:24:07;;;;;;;5.90;1.80;;;;;;;8.91;70.93;100970.14;130601;1260;107545;-77
2023/05/18 02:27:14;;;;;;;6.90;1.90;;;;;;;8.90;71.08;100973.61;130660;1256;107280;-77
2023/05/18 02:30:20;;;;;;;9.70;2.40;;;;;;;8.84;71.19;100975.46;130601;1260;106286;-77
2023/05/18 02:33:26;;;;;;;6.80;2.20;;;;;;;8.78;71.23;100980.23;130637;1260;107508;-77
2023/05/18 02:36:35;;;;;;;8.40;2.30;;;;;;;8.76;71.20;100990.18;130700;1262;106834;-73
2023/05/18 02:39:42;;;;;;;6.80;2.10;;;;;;;8.74;71.39;100992.78;130739;1261;107273;-73
2023/05/18 02:42:47;;;;;;;9.30;2.00;;;;;;;8.73;71.35;100996.97;130717;1256;107509;-74
2023/05/18 02:45:53;;;;;;;9.50;2.70;;;;;;;8.70;71.83;101001.45;130711;1260;107507;-74
2023/05/18 02:48:59;;;;;;;6.10;2.00;;;;;;;8.67;71.70;101002.02;130638;1256;107537;-73
2023/05/18 02:52:05;;;;;;;7.80;1.80;;;;;;;8.67;71.73;101007.23;130683;1260;107717;-72
2023/05/18 02:55:12;;;;;;;11.50;2.80;;;;;;;8.65;72.36;101014.44;130620;1256;107558;-72
2023/05/18 02:58:29;;;;;;;5.90;2.00;;;;;;;8.67;72.35;101018.02;130586;1256;107373;-72
2023/05/18 03:01:53;;;;;;;9.20;2.20;;;;;;;8.68;72.28;101021.64;130583;1256;107241;-72
2023/05/18 03:04:58;;;;;;;7.50;2.50;;;;;;;8.72;72.38;101024.22;130514;1261;107544;-73
2023/05/18 03:08:04;;;;;;;6.90;2.50;;;;;;;8.73;72.45;101028.34;130561;1261;107549;-73
2023/05/18 03:11:10;;;;;;;8.20;2.30;;;;;;;8.75;72.55;101029.06;130683;1256;107355;-71
2023/05/18 03:14:16;;;;;;;7.80;2.70;;;;;;;8.69;72.90;101032.23;130819;1260;108055;-73
2023/05/18 03:17:22;;;;;;;7.60;2.60;;;;;;;8.69;72.98;101034.41;130608;1259;107479;-72
2023/05/18 03:20:28;;;;;;;7.70;2.60;;;;;;;8.68;73.21;101038.34;130513;1261;107388;-72
2023/05/18 03:23:34;;;;;;;6.00;1.90;;;;;;;8.70;73.21;101039.46;130480;1262;107548;-72
2023/05/18 03:26:43;;;;;;;8.50;2.60;;;;;;;8.73;73.75;101040.11;130539;1260;107644;-72
2023/05/18 03:29:48;;;;;;;6.90;2.40;;;;;;;8.75;73.73;101035.11;130472;1261;107471;-72
2023/05/18 03:32:55;;;;;;;6.90;2.70;;;;;;;8.79;74.11;101033.02;130554;1256;107316;-74
2023/05/18 03:36:03;;;;;;;8.30;2.90;;;;;;;8.80;74.15;101038.13;130580;1256;107310;-72
2023/05/18 03:39:10;;;;;;;8.70;2.80;;;;;;;8.80;74.16;101039.36;130590;1259;108535;-72
2023/05/18 03:42:16;;;;;;;8.10;2.60;;;;;;;8.78;74.22;101047.11;130641;1260;107423;-72
2023/05/18 03:45:22;;;;;;;6.60;2.70;;;;;;;8.78;74.37;101051.23;130584;1256;107268;-73
2023/05/18 03:48:29;;;;;;;7.70;2.70;;;;;;;8.72;74.16;101057.87;130630;1271;107088;-71
2023/05/18 03:51:35;;;;;;;8.10;2.50;;;;;;;8.68;74.23;101064.27;130478;1261;107520;-72
2023/05/18 03:54:43;;;;;;;10.10;2.90;;;;;;;8.68;73.90;101067.29;130678;1256;107494;-72
2023/05/18 03:57:48;;;;;;;9.50;2.70;;;;;;;8.72;73.90;101067.96;130671;1262;107371;-72
2023/05/18 04:00:55;;;;;;;6.80;2.50;;;;;;;8.78;73.84;101067.13;130554;1271;107409;-72
2023/05/18 04:04:01;;;;;;;11.00;2.60;;;;;;;8.80;73.39;101069.80;130552;1260;105666;-71
2023/05/18 04:07:06;;;;;;;9.70;2.60;;;;;;;8.84;73.56;101068.60;130647;1256;107657;-74
2023/05/18 04:10:13;;;;;;;9.90;2.80;;;;;;;8.89;73.42;101068.91;130463;1261;107542;-72
2023/05/18 04:13:21;;;;;;;5.60;2.40;;;;;;;8.91;73.18;101070.56;130668;1256;107541;-73
2023/05/18 04:16:27;;;;;;;9.80;3.00;;;;;;;8.96;73.04;101077.98;130701;1256;107519;-73
2023/05/18 04:19:33;;;;;;;7.80;2.30;;;;;;;8.93;72.87;101078.58;130565;1256;108521;-73
2023/05/18 04:22:45;;;;;;;9.10;2.60;;;;;;;8.96;72.83;101082.58;130545;1260;107488;-73
2023/05/18 04:25:50;;;;;;;8.20;2.30;;;;;;;8.95;72.47;101082.70;130515;1262;107630;-75
2023/05/18 04:28:59;;;;;;;6.10;2.60;;;;;;;8.92;72.19;101080.60;130556;1261;107368;-73
2023/05/18 04:32:06;;;;;;;11.10;2.40;;;;;;;8.84;71.88;101085.88;130668;1260;107392;-72
2023/05/18 04:35:12;;;;;;;6.00;2.40;;;;;;;8.81;72.44;101087.28;130417;1256;107392;-72
2023/05/18 04:38:21;;;;;;;5.80;2.20;;;;;;;8.90;72.33;101085.02;130481;1262;107546;-75
2023/05/18 04:41:27;;;;;;;7.30;2.30;;;;;;;8.95;72.46;101088.66;130527;1256;107530;-72
2023/05/18 04:44:33;;;;;;;6.90;2.60;;;;;;;9.09;72.27;101088.14;130587;1261;107403;-72
2023/05/18 04:47:39;;;;;;;5.80;2.40;;;;;;;9.25;72.19;101086.27;130689;1260;107402;-72
2023/05/18 04:50:45;;;;;;;7.00;2.40;;;;;;;9.35;71.23;101091.75;130497;1256;108103;-72
2023/05/18 04:53:55;;;;;;;4.70;1.90;;;;;;;9.27;70.98;101088.26;130514;1262;107516;-75
2023/05/18 04:57:02;;;;;;;6.50;2.30;;;;;;;9.26;70.72;101094.23;130632;1262;107589;-72
2023/05/18 05:00:11;;;;;;;5.80;2.20;;;;;;;9.28;70.89;101096.05;130594;1271;107869;-72
2023/05/18 05:03:17;;;;;;;10.80;2.60;;;;;;;9.30;71.14;101105.80;130354;1265;107170;-72
2023/05/18 05:06:22;;;;;;;8.80;2.40;;;;;;;9.31;70.67;101103.57;130343;1261;106887;-71
2023/05/18 05:09:28;;;;;;;6.20;2.30;;;;;;;9.28;70.72;101109.70;130412;1260;107538;-73
2023/05/18 05:12:35;;;;;;;6.90;2.10;;;;;;;9.32;70.79;101108.83;130626;1260;107271;-71
2023/05/18 05:15:40;;;;;;;6.30;2.70;;;;;;;9.35;70.62;101108.78;130498;1258;107531;-72
2023/05/18 05:18:46;;;;;;;5.20;2.30;;;;;;;9.34;70.01;101109.52;130503;1261;107586;-72
2023/05/18 05:21:52;;;;;;;5.90;2.20;;;;;;;9.36;70.66;101111.14;130553;1256;107182;-72
2023/05/18 05:24:57;;;;;;;7.80;2.70;;;;;;;9.41;70.22;101112.32;130464;1256;106727;-73
2023/05/18 05:28:04;;;;;;;5.80;2.60;;;;;;;9.39;69.74;101114.48;130666;1260;107502;-74
2023/05/18 05:31:10;;;;;;;7.20;3.00;;;;;;;9.40;69.83;101114.35;130610;1261;107263;-72
2023/05/18 05:34:16;;;;;;;6.80;2.20;;;;;;;9.47;69.84;101113.99;130715;1260;107447;-74
2023/05/18 05:37:21;;;;;;;8.70;2.30;;;;;;;9.56;70.13;101111.73;130663;1262;107613;-77
2023/05/18 05:40:28;;;;;;;7.60;2.40;;;;;;;9.69;69.88;101113.14;130284;1261;107357;-73
2023/05/18 05:43:34;;;;;;;9.00;2.50;;;;;;;9.84;69.29;101116.67;130618;1261;107376;-70
2023/05/18 05:46:40;;;;;;;5.80;2.20;;;;;;;10.04;69.91;101115.20;130560;1261;107490;-71
2023/05/18 05:49:47;;;;;;;4.80;2.30;;;;;;;10.31;69.90;101118.26;130592;1261;108305;-73
2023/05/18 05:52:52;;;;;;;5.40;2.10;;;;;;;10.52;69.01;101117.77;130508;1255;107545;-72
2023/05/18 05:55:59;;;;;;;4.80;1.80;;;;;;;10.70;68.59;101119.77;130512;1260;107375;-72
2023/05/18 05:59:05;;;;;;;5.90;1.90;;;;;;;10.84;68.86;101115.33;130738;1260;107465;-72
2023/05/18 06:02:11;;;;;;;6.20;2.10;;;;;;;10.95;67.27;101117.05;130638;1262;107402;-72
2023/05/18 06:05:18;;;;;;;6.00;2.00;;;;;;;10.92;67.42;101121.77;130759;1261;107620;-72
2023/05/18 06:08:23;;;;;;;5.00;2.40;;;;;;;10.94;67.71;101122.27;130587;1260;107368;-73
2023/05/18 06:11:30;;;;;;;6.00;2.10;;;;;;;11.10;67.21;101122.33;130497;1261;107436;-71
2023/05/18 06:14:36;;;;;;;6.80;2.80;;;;;;;11.11;66.42;101120.64;130662;1260;107383;-72
2023/05/18 06:17:44;;;;;;;7.20;2.20;;;;;;;11.09;66.01;101121.16;130741;1262;107438;-72
2023/05/18 06:20:51;;;;;;;7.60;2.20;;;;;;;10.97;66.04;101125.25;130740;1261;107454;-72
2023/05/18 06:23:58;;;;;;;4.40;2.00;;;;;;;10.94;66.34;101125.65;130596;1260;107408;-72
2023/05/18 06:27:10;;;;;;;4.50;1.60;;;;;;;11.10;67.27;101126.06;130586;1261;105516;-72
2023/05/18 06:30:19;;;;;;;5.70;2.20;;;;;;;11.22;66.45;101125.58;130648;1262;107354;-72
2023/05/18 06:33:44;;;;;;;4.70;2.00;;;;;;;11.32;66.24;101123.63;130606;1267;107520;-73
2023/05/18 06:36:50;;;;;;;6.00;2.00;;;;;;;11.40;65.82;101129.86;130520;1260;107369;-72
2023/05/18 06:39:56;;;;;;;5.50;1.90;;;;;;;11.39;65.71;101129.02;130572;1262;107539;-73
2023/05/18 06:43:02;;;;;;;4.70;2.00;;;;;;;11.47;66.62;101125.16;130683;1260;107272;-72
2023/05/18 06:46:25;;;;;;;3.20;1.70;;;;;;;11.70;66.74;101131.61;130574;1262;107388;-72
2023/05/18 06:49:34;;;;;;;5.80;1.90;;;;;;;11.91;66.02;101132.61;130567;1262;107496;-71
2023/05/18 06:52:40;;;;;;;4.30;2.20;;;;;;;12.10;65.36;101143.09;130533;1260;107461;-72
2023/05/18 06:55:46;;;;;;;4.80;2.10;;;;;;;12.30;66.07;101142.23;130465;1260;107403;-72
2023/05/18 06:58:52;;;;;;;4.50;1.70;;;;;;;12.48;65.41;101146.55;130673;1256;107462;-72
2023/05/18 07:01:57;;;;;;;5.70;1.90;;;;;;;12.55;64.56;101146.79;130649;1261;106264;-72
2023/05/18 07:05:07;;;;;;;5.30;1.60;;;;;;;12.55;64.21;101146.77;130773;1261;107450;-72
2023/05/18 07:08:13;;;;;;;6.50;1.90;;;;;;;12.53;63.38;101145.89;130798;1255;106890;-72
2023/05/18 07:11:19;;;;;;;5.90;2.10;;;;;;;12.53;63.66;101148.62;130612;1262;107409;-74
2023/05/18 07:14:25;;;;;;;4.50;1.90;;;;;;;12.53;63.07;101147.70;130619;1257;105905;-73
2023/05/18 07:17:30;;;;;;;3.80;1.50;;;;;;;12.55;62.77;101152.86;130554;1269;107582;-72
2023/05/18 07:20:36;;;;;;;5.10;1.80;;;;;;;12.60;63.00;101151.40;130623;1268;107263;-72
2023/05/18 07:23:41;;;;;;;4.10;1.60;;;;;;;12.69;62.79;101152.67;130666;1260;107637;-72
2023/05/18 07:26:47;;;;;;;4.70;1.50;;;;;;;12.81;63.17;101147.09;130597;1262;107595;-72
2023/05/18 07:29:52;;;;;;;4.80;1.40;;;;;;;12.86;62.38;101146.89;130692;1260;107516;-73
2023/05/18 07:32:58;;;;;;;3.80;1.60;;;;;;;12.89;62.41;101146.86;130590;1260;107538;-72
2023/05/18 07:36:03;;;;;;;6.60;2.30;;;;;;;12.81;60.95;101150.50;130754;1256;107537;-72
2023/05/18 07:39:16;;;;;;;3.90;1.50;;;;;;;12.79;63.40;101146.72;130701;1262;107470;-72
2023/05/18 07:42:21;;;;;;;4.80;1.70;;;;;;;13.00;61.84;101152.63;130548;1260;108116;-71
2023/05/18 07:45:27;;;;;;;4.00;1.40;;;;;;;12.79;60.77;101155.77;130797;1259;105920;-72
2023/05/18 07:48:33;;;;;;;2.90;1.50;;;;;;;12.76;62.43;101152.88;130658;1268;107376;-72
2023/05/18 07:51:38;;;;;;;3.00;1.20;;;;;;;13.08;63.21;101153.09;130605;1260;106322;-72
2023/05/18 07:54:44;;;;;;;3.90;1.40;;;;;;;13.34;62.36;101154.75;130674;1261;107564;-72
2023/05/18 07:57:49;;;;;;;3.80;1.50;;;;;;;13.47;62.65;101150.72;130700;1260;107393;-74
2023/05/18 08:00:55;;;;;;;3.80;1.70;;;;;;;13.62;62.58;101154.48;130552;1255;107921;-74
2023/05/18 08:04:00;;;;;;;2.90;1.40;;;;;;;13.81;62.15;101157.27;130486;1260;107418;-72
2023/05/18 08:07:06;;;;;;;2.80;1.80;;;;;;;13.88;61.34;101152.76;130566;1262;107581;-73
2023/05/18 08:10:12;;;;;;;2.60;1.20;;;;;;;13.95;61.68;101157.29;130606;1269;107437;-73
2023/05/18 08:13:17;;;;;;;3.10;1.40;;;;;;;14.13;61.75;101155.14;130605;1261;107254;-73
2023/05/18 08:16:23;;;;;;;3.30;1.30;;;;;;;14.23;59.42;101159.20;130532;1262;107529;-73
2023/05/18 08:19:28;;;;;;;6.40;1.50;;;;;;;14.18;59.59;101152.29;130507;1262;107629;-74
2023/05/18 08:22:34;;;;;;;3.50;1.20;;;;;;;14.16;60.33;101152.65;130553;1261;107591;-73
2023/05/18 08:25:39;;;;;;;2.70;1.20;;;;;;;14.27;60.77;101152.91;130534;1261;107574;-73
2023/05/18 08:28:45;;;;;;;4.00;1.00;;;;;;;14.41;60.32;101153.77;130618;1260;107629;-73
2023/05/18 08:31:51;;;;;;;2.70;0.80;;;;;;;14.54;60.16;101154.79;130596;1260;107542;-73
2023/05/18 08:34:57;;;;;;;3.20;1.20;;;;;;;14.64;59.61;101157.70;130492;1262;106601;-74
2023/05/18 08:38:02;;;;;;;2.40;1.20;;;;;;;14.78;60.27;101159.69;130570;1262;107994;-73
2023/05/18 08:41:12;;;;;;;3.70;0.80;;;;;;;14.98;59.83;101156.91;130601;1270;107513;-73
2023/05/18 08:44:23;;;;;;;4.40;2.70;;;;;;;15.13;59.09;101159.47;130558;1257;107534;-73
2023/05/18 08:47:31;;;;;;;3.10;1.30;;;;;;;15.21;59.70;101159.48;130501;1261;107396;-73
2023/05/18 08:50:37;;;;;;;2.00;1.10;;;;;;;15.30;59.45;101152.09;130499;1260;107366;-73
2023/05/18 08:53:44;;;;;;;2.80;0.90;;;;;;;15.35;58.44;101156.98;130555;1269;107381;-73
2023/05/18 08:56:50;;;;;;;2.50;1.00;;;;;;;15.12;56.30;101158.33;130528;1269;107146;-73
2023/05/18 09:00:00;;;;;;;2.10;1.00;;;;;;;14.85;57.38;101159.60;130571;1257;106304;-72
2023/05/18 09:03:08;;;;;;;2.90;1.00;;;;;;;14.85;57.16;101158.55;130605;1260;107659;-72
2023/05/18 09:06:14;;;;;;;2.70;0.90;;;;;;;14.69;55.75;101158.31;130513;1269;107418;-72
2023/05/18 09:09:21;;;;;;;2.50;0.80;;;;;;;14.68;57.14;101159.82;130582;1257;107251;-72
2023/05/18 09:12:28;;;;;;;2.50;1.10;;;;;;;14.69;55.53;101158.41;130553;1260;107511;-72
2023/05/18 09:15:34;;;;;;;2.10;0.80;;;;;;;14.77;57.83;101156.39;130719;1260;107317;-72
2023/05/18 09:18:40;;;;;;;2.40;0.70;;;;;;;15.07;57.07;101158.44;130597;1259;107395;-72
2023/05/18 09:21:46;;;;;;;2.30;0.90;;;;;;;15.25;56.14;101157.65;130647;1260;107457;-72
2023/05/18 09:24:52;;;;;;;1.20;0.60;;;;;;;15.38;56.61;101152.72;130656;1269;107452;-72
2023/05/18 09:27:57;;;;;;;1.10;0.50;;;;;;;15.53;55.53;101146.65;130599;1269;107384;-72
2023/05/18 09:31:03;;;;;;;2.60;0.70;;;;;;;15.66;56.60;101145.45;130641;1258;107529;-73
2023/05/18 09:34:08;;;;;;;3.00;0.70;;;;;;;15.93;56.88;101147.74;130547;1261;107460;-73
2023/05/18 09:37:17;;;;;;;2.60;1.00;;;;;;;16.20;56.18;101154.60;130619;1260;107257;-73
2023/05/18 09:40:29;;;;;;;1.80;0.70;;;;;;;16.19;54.02;101156.16;130630;1260;107525;-73
2023/05/18 09:43:35;;;;;;;;;;;;;;;16.06;52.57;101157.48;130618;1261;107361;-73
2023/05/18 09:46:41;;;;;;;2.40;0.50;;;;;;;15.99;55.51;101155.32;130651;1261;107293;-73
2023/05/18 09:49:47;;;;;;;5.60;3.60;;;;;;;16.21;55.11;101156.27;130534;1269;107427;-74
2023/05/18 09:52:53;;;;;;;2.90;1.00;;;;;;;16.45;55.76;101154.45;130616;1256;107381;-73
2023/05/18 09:56:04;;;;;;;1.50;0.80;;;;;;;16.54;54.57;101158.93;130572;1258;107300;-73
2023/05/18 09:59:14;;;;;;;2.10;0.70;;;;;;;16.71;55.19;101161.09;130625;1261;107536;-74
2023/05/18 10:02:23;;;;;;;2.00;0.50;;;;;;;16.86;55.34;101159.30;130786;1261;107617;-74
2023/05/18 10:05:32;;;;;;;1.60;0.70;;;;;;;16.99;54.59;101160.86;130650;1268;107658;-73
2023/05/18 10:08:38;;;;;;;1.10;0.50;;;;;;;17.05;54.48;101159.12;130629;1261;107551;-73
2023/05/18 10:11:44;;;;;;;1.40;0.70;;;;;;;17.05;54.63;101159.15;130692;1261;107297;-73
2023/05/18 10:14:50;;;;;;;1.80;0.80;;;;;;;17.11;54.55;101156.64;130782;1260;106404;-73
2023/05/18 10:17:57;;;;;;;3.10;0.70;;;;;;;17.08;53.69;101160.10;130602;1267;107430;-72
2023/05/18 10:21:04;;;;;;;2.70;0.80;;;;;;;17.12;54.11;101160.55;130519;1269;106087;-72
2023/05/18 10:24:13;;;;;;;1.40;0.80;;;;;;;17.16;53.08;101159.48;130563;1270;108398;-72
2023/05/18 10:27:23;;;;;;;2.80;0.70;;;;;;;16.92;52.05;101156.96;130465;1260;108184;-72
2023/05/18 10:30:29;;;;;;;2.80;1.00;;;;;;;16.67;51.55;101161.77;130704;1269;107358;-72
2023/05/18 10:33:37;;;;;;;2.90;0.80;;;;;;;16.55;52.34;101160.40;130777;1261;106908;-73
2023/05/18 10:36:43;;;;;;;2.50;0.90;;;;;;;16.52;52.78;101160.34;130748;1269;107348;-73
2023/05/18 10:39:50;;;;;;;1.30;0.70;;;;;;;16.47;52.36;101163.77;130689;1269;107533;-73
2023/05/18 10:42:58;;;;;;;1.30;0.70;;;;;;;16.44;53.45;101163.62;130629;1261;107521;-73
2023/05/18 10:46:06;;;;;;;1.10;0.50;;;;;;;16.62;53.88;101161.74;130674;1261;107496;-73
2023/05/18 10:49:14;;;;;;;1.50;0.90;;;;;;;16.89;54.26;101162.77;130573;1260;107250;-72
2023/05/18 10:52:21;;;;;;;2.20;0.70;;;;;;;17.10;52.23;101162.70;130710;1260;107507;-73
2023/05/18 10:55:28;;;;;;;3.20;0.70;;;;;;;16.94;51.50;101164.88;130752;1269;107492;-73
2023/05/18 10:58:36;;;;;;;2.00;0.90;;;;;;;16.84;52.81;101164.76;130641;1260;107555;-73
2023/05/18 11:01:42;;;;;;;1.60;0.90;;;;;;;17.03;52.36;101158.14;130550;1269;107551;-73
2023/05/18 11:04:48;;;;;;;2.60;0.80;;;;;;;17.21;53.13;101159.67;130543;1269;107942;-74
2023/05/18 11:08:02;;;;;;;0.90;0.70;;;;;;;17.32;50.60;101158.24;130600;1261;108523;-73
2023/05/18 11:11:07;;;;;;;0.90;0.60;;;;;;;17.22;52.65;101155.41;130620;1261;106730;-73
2023/05/18 11:14:13;;;;;;;1.30;0.60;;;;;;;17.34;53.04;101155.26;130769;1256;106058;-73
2023/05/18 11:17:21;;;;;;;2.90;1.20;;;;;;;17.45;51.76;101155.45;130575;1262;107563;-72
2023/05/18 11:20:27;;;;;;;2.00;0.70;;;;;;;17.35;51.90;101152.83;130536;1266;106833;-72
2023/05/18 11:23:34;;;;;;;2.10;0.60;;;;;;;17.46;52.50;101151.40;130575;1257;107545;-73
2023/05/18 11:26:41;;;;;;;1.80;0.70;;;;;;;17.71;52.49;101146.81;130708;1260;107500;-72
2023/05/18 11:29:47;;;;;;;1.30;0.70;;;;;;;17.85;52.17;101145.32;130563;1258;107517;-73
2023/05/18 11:33:07;;;;;;;0.90;0.60;;;;;;;17.99;52.16;101139.48;130593;1260;106728;-73
2023/05/18 11:36:14;;;;;;;1.10;0.60;;;;;;;18.11;51.46;101140.83;130605;1258;107492;-73
2023/05/18 11:39:26;;;;;;;1.60;0.70;;;;;;;17.97;49.41;101146.45;130507;1259;107255;-72
2023/05/18 11:42:33;;;;;;;;;;;;;;;17.35;47.24;101155.90;130746;1261;107567;-73
2023/05/18 11:45:54;;;;;;;0.80;0.70;;;;;;;17.13;49.51;101150.55;130379;1257;107275;-72
2023/05/18 11:49:04;;;;;;;2.00;0.70;;;;;;;17.12;48.91;101152.05;130521;1260;106697;-73
2023/05/18 11:52:16;;;;;;;1.90;0.70;;;;;;;16.88;49.49;101156.03;130394;1256;107557;-73
2023/05/18 11:55:22;;;;;;;1.30;0.80;;;;;;;17.04;50.72;101151.91;130534;1257;107414;-73
2023/05/18 11:58:30;;;;;;;0.90;0.50;;;;;;;17.31;51.17;101151.84;130532;1261;107551;-73
2023/05/18 12:01:35;;;;;;;1.30;0.50;;;;;;;17.45;49.78;101153.66;130568;1261;107459;-73
2023/05/18 12:04:50;;;;;;;1.60;0.60;;;;;;;17.18;47.70;101157.89;130622;1260;107529;-72
2023/05/18 12:07:56;;;;;;;3.20;0.60;;;;;;;16.97;48.71;101149.64;130628;1258;107402;-73
2023/05/18 12:11:02;;;;;;;2.30;0.70;;;;;;;17.04;49.80;101150.42;130516;1261;107537;-72
2023/05/18 12:14:08;;;;;;;1.10;0.50;;;;;;;17.20;48.16;101148.48;130601;1260;107476;-72
2023/05/18 12:17:13;;;;;;;1.50;0.50;;;;;;;17.19;48.95;101145.89;130642;1268;107254;-72
2023/05/18 12:20:21;;;;;;;1.90;0.60;;;;;;;17.14;48.55;101155.59;130676;1260;107647;-72
2023/05/18 12:23:38;;;;;;;2.40;0.70;;;;;;;17.13;49.01;101148.20;130579;1260;107512;-72
2023/05/18 12:26:45;;;;;;;1.40;0.60;;;;;;;17.31;49.16;101150.29;130795;1261;107485;-72
2023/05/18 12:29:51;;;;;;;2.50;0.60;;;;;;;17.17;46.79;101155.61;130779;1260;106700;-72
2023/05/18 12:32:57;;;;;;;1.80;0.70;;;;;;;17.08;48.22;101149.06;130534;1261;105658;-72
2023/05/18 12:36:03;;;;;;;2.00;0.60;;;;;;;17.27;49.22;101151.62;130599;1262;107494;-72
2023/05/18 12:39:09;;;;;;;1.80;0.50;;;;;;;17.44;48.44;101156.16;130664;1260;107519;-73
2023/05/18 12:42:15;;;;;;;2.40;0.50;;;;;;;17.60;49.24;101149.13;130725;1269;107583;-72
2023/05/18 12:45:22;;;;;;;2.00;0.70;;;;;;;17.84;49.43;101142.89;130760;1261;107428;-73
2023/05/18 12:48:29;;;;;;;1.40;0.50;;;;;;;17.91;47.89;101147.52;130711;1269;107378;-73
2023/05/18 12:51:36;;;;;;;2.40;0.60;;;;;;;17.75;46.72;101150.02;130672;1259;105979;-73
2023/05/18 12:54:58;;;;;;;1.00;0.50;;;;;;;17.58;46.96;101146.75;130693;1260;107582;-72
2023/05/18 12:58:06;;;;;;;1.90;0.90;;;;;;;17.57;47.53;101146.17;130523;1259;107514;-73
2023/05/18 13:01:12;;;;;;;1.40;0.60;;;;;;;17.50;47.74;101151.17;130618;1260;107550;-73
2023/05/18 13:04:18;;;;;;;2.50;0.80;;;;;;;17.54;48.45;101145.52;130625;1261;107631;-72
2023/05/18 13:07:25;;;;;;;1.30;0.70;;;;;;;17.55;47.70;101152.20;130548;1269;107518;-73
2023/05/18 13:10:33;;;;;;;2.60;0.80;;;;;;;17.34;47.31;101152.98;130640;1257;107080;-73
2023/05/18 13:13:39;;;;;;;1.00;0.60;;;;;;;17.20;48.36;101149.52;130647;1261;107646;-73
2023/05/18 13:16:49;;;;;;;1.40;0.60;;;;;;;17.38;48.56;101149.11;130746;1258;107902;-73
2023/05/18 13:19:59;;;;;;;2.10;0.50;;;;;;;17.52;48.16;101146.29;130788;1260;107496;-73
2023/05/18 13:23:07;;;;;;;1.10;0.60;;;;;;;17.54;48.63;101142.83;130741;1260;107548;-73
2023/05/18 13:26:13;;;;;;;1.80;0.50;;;;;;;17.53;48.07;101145.27;130588;1256;107451;-73
2023/05/18 13:29:20;;;;;;;3.80;0.80;;;;;;;17.48;47.71;101145.05;130485;1269;107262;-75
2023/05/18 13:32:26;;;;;;;1.40;0.70;;;;;;;17.45;47.44;101142.73;130682;1257;108128;-72
2023/05/18 13:35:31;;;;;;;1.70;0.70;;;;;;;17.32;47.73;101136.96;130679;1269;107532;-73
2023/05/18 13:38:37;;;;;;;2.20;0.80;;;;;;;17.33;47.82;101141.45;130579;1257;124408;-73
2023/05/18 13:41:42;;;;;;;2.10;1.20;;;;;;;17.32;47.76;101141.89;130744;1260;107521;-73
2023/05/18 13:44:48;;;;;;;2.10;0.80;;;;;;;17.38;48.11;101143.17;130631;1261;106794;-73
2023/05/18 13:47:53;;;;;;;3.10;0.70;;;;;;;17.37;47.55;101137.52;130550;1261;107551;-73
2023/05/18 13:50:59;;;;;;;1.30;0.60;;;;;;;17.20;46.83;101137.09;130695;1261;107547;-73
2023/05/18 13:54:06;;;;;;;2.10;0.60;;;;;;;17.07;48.14;101140.77;130633;1265;107695;-73
2023/05/18 13:57:12;;;;;;;1.20;0.70;;;;;;;17.02;47.39;101133.58;130811;1257;105674;-73
2023/05/18 14:00:19;;;;;;;1.30;0.70;;;;;;;16.91;47.77;101132.54;130802;1261;107554;-73
2023/05/18 14:03:25;;;;;;;1.30;0.60;;;;;;;16.99;48.14;101135.38;130838;1261;107567;-73
2023/05/18 14:06:30;;;;;;;1.30;0.70;;;;;;;17.07;48.03;101134.64;130727;1261;107442;-73
2023/05/18 14:09:36;;;;;;;1.80;0.80;;;;;;;17.15;47.74;101137.71;130727;1257;108552;-73
2023/05/18 14:12:42;;;;;;;1.80;0.60;;;;;;;17.13;47.91;101138.30;130663;1262;107510;-73
2023/05/18 14:15:47;;;;;;;2.20;0.70;;;;;;;17.04;47.85;101133.88;130747;1257;107225;-73